Time;durP1;ratioP1;P1;durP2;ratioP2;P2;SDS_P1;SDS_P2;PMS_P1;PMS_P2;Temp;Humidity;BMP_temperature;BMP_pressure;BME280_temperature;BME280_humidity;BME280_pressure;Samples;Min_cycle;Max_cycle;Signal;HPM_P1;HPM_P2
2021/01/30 07:37:21;;;;;;;1.70;1.50;;;2.00;98.20;;;;;;6315317;22;20440;-76
2021/01/30 07:39:53;;;;;;;2.17;1.97;;;2.00;98.20;;;;;;6231173;22;892205;-77
2021/01/30 07:42:22;;;;;;;1.70;1.60;;;2.00;98.20;;;;;;6227576;23;20585;-76
2021/01/30 07:45:05;;;;;;;1.70;1.60;;;2.00;98.20;;;;;;6211851;23;20447;-76
2021/01/30 07:47:41;;;;;;;1.70;1.50;;;2.00;98.20;;;;;;6165081;22;20542;-76
2021/01/30 07:50:17;;;;;;;1.70;1.50;;;1.90;98.20;;;;;;6150366;23;20950;-77
2021/01/30 07:52:55;;;;;;;1.70;1.50;;;2.00;98.20;;;;;;6152870;23;20502;-77
2021/01/30 07:55:23;;;;;;;1.70;1.60;;;2.00;98.20;;;;;;6152804;23;20913;-75
2021/01/30 07:58:07;;;;;;;1.70;1.43;;;2.00;98.20;;;;;;6150878;23;20425;-77
2021/01/30 08:00:46;;;;;;;1.60;1.40;;;2.00;98.20;;;;;;6162770;23;20484;-77
2021/01/30 08:03:54;;;;;;;1.70;1.50;;;1.90;98.20;;;;;;6154562;23;20464;-77
2021/01/30 08:06:34;;;;;;;1.83;1.70;;;1.90;98.20;;;;;;6151958;23;20449;-76
2021/01/30 08:09:06;;;;;;;1.70;1.47;;;2.00;98.20;;;;;;6154861;23;20736;-76
2021/01/30 08:11:38;;;;;;;1.70;1.60;;;2.00;98.20;;;;;;6151230;23;20445;-77
2021/01/30 08:14:21;;;;;;;1.70;1.50;;;2.00;98.20;;;;;;6151883;23;20612;-76
2021/01/30 08:16:57;;;;;;;1.70;1.57;;;2.00;98.20;;;;;;6151062;23;20412;-76
2021/01/30 08:19:36;;;;;;;1.70;1.57;;;2.10;98.20;;;;;;6160836;23;20428;-76
2021/01/30 08:22:08;;;;;;;1.70;1.57;;;2.10;98.20;;;;;;6153022;23;20614;-76
2021/01/30 08:24:45;;;;;;;1.70;1.50;;;2.10;98.20;;;;;;6155261;23;20606;-77
2021/01/30 08:27:18;;;;;;;1.70;1.50;;;2.10;98.20;;;;;;6155174;23;20404;-76
2021/01/30 08:29:48;;;;;;;1.70;1.50;;;2.10;98.20;;;;;;6157273;23;20405;-77
2021/01/30 08:32:35;;;;;;;1.70;1.60;;;2.00;98.20;;;;;;6166130;23;20437;-76
2021/01/30 08:35:35;;;;;;;1.70;1.50;;;2.10;98.20;;;;;;6154895;23;20513;-75
2021/01/30 08:38:04;;;;;;;1.70;1.50;;;2.10;98.20;;;;;;6154880;23;20471;-74
2021/01/30 08:40:47;;;;;;;1.63;1.40;;;2.10;98.20;;;;;;6179756;23;20431;-76
2021/01/30 08:43:22;;;;;;;1.70;1.40;;;2.10;98.20;;;;;;6181335;23;20439;-76
2021/01/30 08:45:50;;;;;;;1.70;1.50;;;2.10;98.20;;;;;;6180823;23;20586;-76
2021/01/30 08:48:30;;;;;;;1.70;1.50;;;2.10;98.20;;;;;;6180433;23;20451;-76
2021/01/30 08:50:58;;;;;;;1.70;1.50;;;2.10;98.20;;;;;;6181011;23;20498;-76
2021/01/30 08:53:34;;;;;;;1.70;1.60;;;2.10;98.20;;;;;;6179909;23;20483;-76
2021/01/30 08:56:03;;;;;;;1.70;1.60;;;2.10;98.20;;;;;;6182364;23;20523;-76
2021/01/30 08:59:00;;;;;;;1.70;1.50;;;2.10;98.20;;;;;;6184042;23;20842;-77
2021/01/30 09:01:48;;;;;;;1.70;1.50;;;2.10;98.20;;;;;;6131387;23;20434;-76
2021/01/30 09:04:59;;;;;;;1.70;1.40;;;2.10;98.20;;;;;;6176655;23;20424;-77
2021/01/30 09:07:41;;;;;;;1.70;1.47;;;2.10;98.20;;;;;;6183355;23;20483;-76
2021/01/30 09:10:33;;;;;;;1.77;1.67;;;2.10;98.20;;;;;;6182133;23;20408;-77
2021/01/30 09:13:06;;;;;;;1.67;1.47;;;2.20;98.20;;;;;;6181105;23;20407;-76
2021/01/30 09:15:58;;;;;;;1.67;1.40;;;2.10;98.20;;;;;;6182668;23;20396;-75
2021/01/30 09:18:47;;;;;;;1.70;1.50;;;2.10;98.20;;;;;;6180901;23;20809;-76
2021/01/30 09:21:21;;;;;;;1.70;1.47;;;2.20;98.20;;;;;;6183948;23;21011;-77
2021/01/30 09:23:58;;;;;;;3.93;3.73;;;2.20;98.20;;;;;;6182779;23;20507;-78
2021/01/30 09:26:42;;;;;;;1.70;1.60;;;2.30;98.20;;;;;;6182239;23;20519;-77
2021/01/30 09:29:09;;;;;;;1.70;1.40;;;2.30;98.20;;;;;;6183785;23;20796;-76
2021/01/30 09:31:36;;;;;;;1.70;1.40;;;2.30;98.20;;;;;;6181996;23;20450;-77
2021/01/30 09:34:06;;;;;;;1.70;1.40;;;2.40;98.20;;;;;;6182044;23;20424;-77
2021/01/30 09:36:37;;;;;;;1.63;1.40;;;2.40;98.20;;;;;;6183844;23;20763;-76
2021/01/30 09:39:20;;;;;;;1.70;1.50;;;2.40;98.20;;;;;;6182090;23;20434;-76
2021/01/30 09:41:46;;;;;;;1.67;1.40;;;2.40;98.20;;;;;;6182729;23;20459;-76
2021/01/30 09:44:19;;;;;;;1.70;1.40;;;2.40;98.20;;;;;;6182595;23;20871;-76
2021/01/30 09:46:50;;;;;;;1.70;1.43;;;2.50;98.20;;;;;;6181750;23;20961;-77
2021/01/30 09:49:19;;;;;;;1.67;1.40;;;2.60;98.20;;;;;;6183769;23;20462;-76
2021/01/30 09:51:46;;;;;;;1.70;1.40;;;2.60;98.20;;;;;;6184208;23;20769;-78
2021/01/30 09:54:15;;;;;;;1.80;1.70;;;2.70;98.20;;;;;;6183428;23;20423;-77
2021/01/30 09:56:42;;;;;;;1.70;1.60;;;2.70;98.20;;;;;;6182809;23;20422;-76
2021/01/30 09:59:12;;;;;;;1.67;1.40;;;2.70;98.20;;;;;;6185470;23;20420;-78
2021/01/30 10:01:41;;;;;;;1.70;1.40;;;2.70;98.20;;;;;;6185785;23;20444;-77
2021/01/30 10:04:16;;;;;;;1.70;1.53;;;2.70;98.20;;;;;;6185949;23;20416;-76
2021/01/30 10:06:43;;;;;;;1.70;1.50;;;2.70;98.20;;;;;;6183784;23;20819;-75
2021/01/30 10:09:13;;;;;;;1.67;1.43;;;2.70;98.20;;;;;;6186041;23;20420;-76
2021/01/30 10:11:42;;;;;;;1.70;1.40;;;2.80;98.20;;;;;;6184887;23;20775;-76
2021/01/30 10:14:10;;;;;;;1.70;1.60;;;2.70;98.20;;;;;;6184697;23;20448;-76
2021/01/30 10:16:37;;;;;;;1.70;1.40;;;2.70;98.20;;;;;;6182115;23;20427;-76
2021/01/30 10:19:12;;;;;;;1.70;1.50;;;2.70;98.20;;;;;;6185352;23;20427;-75
2021/01/30 10:21:40;;;;;;;1.70;1.40;;;2.70;98.20;;;;;;6184071;23;21007;-77
2021/01/30 10:24:14;;;;;;;2.73;2.53;;;2.70;98.20;;;;;;6195610;23;20420;-78
2021/01/30 10:26:40;;;;;;;1.63;1.40;;;2.60;98.20;;;;;;6195627;23;20964;-77
2021/01/30 10:29:10;;;;;;;1.70;1.50;;;2.70;98.20;;;;;;6184496;23;20419;-78
2021/01/30 10:31:40;;;;;;;1.67;1.43;;;2.70;98.20;;;;;;6182832;23;20440;-77
2021/01/30 10:34:17;;;;;;;1.67;1.40;;;2.80;98.20;;;;;;6186205;23;20424;-78
2021/01/30 10:36:51;;;;;;;1.70;1.50;;;2.90;98.20;;;;;;6185200;23;20458;-76
2021/01/30 10:39:18;;;;;;;1.70;1.40;;;2.90;98.20;;;;;;6180944;23;20427;-77
2021/01/30 10:41:45;;;;;;;1.70;1.50;;;2.90;98.20;;;;;;6176859;23;20458;-76
2021/01/30 10:44:19;;;;;;;1.67;1.40;;;3.00;98.20;;;;;;6176906;23;20478;-77
2021/01/30 10:46:46;;;;;;;1.70;1.53;;;3.10;98.20;;;;;;6176535;23;20493;-77
2021/01/30 10:49:19;;;;;;;1.70;1.50;;;3.10;98.20;;;;;;6179052;23;20952;-76
2021/01/30 10:51:47;;;;;;;1.70;1.50;;;3.10;98.20;;;;;;6189217;23;20436;-76
2021/01/30 10:54:24;;;;;;;1.67;1.30;;;3.20;98.20;;;;;;6180643;23;20435;-77
2021/01/30 10:57:23;;;;;;;1.70;1.43;;;3.20;98.20;;;;;;6179597;23;21117;-78
2021/01/30 10:59:53;;;;;;;1.70;1.60;;;3.30;98.20;;;;;;6177646;23;20420;-78
2021/01/30 11:02:42;;;;;;;1.67;1.37;;;3.20;98.20;;;;;;6188374;23;20580;-78
2021/01/30 11:05:28;;;;;;;2.27;2.07;;;3.30;98.20;;;;;;6174299;23;20531;-76
2021/01/30 11:08:00;;;;;;;1.60;1.40;;;3.30;98.20;;;;;;6178814;23;20419;-78
2021/01/30 11:10:39;;;;;;;1.67;1.47;;;3.40;98.20;;;;;;6176724;23;20412;-78
2021/01/30 11:13:15;;;;;;;1.70;1.60;;;3.40;98.20;;;;;;6178038;23;20408;-78
2021/01/30 11:15:43;;;;;;;1.60;1.40;;;3.30;98.20;;;;;;6176763;23;20418;-77
2021/01/30 11:18:18;;;;;;;1.70;1.40;;;3.40;98.20;;;;;;6177530;23;20419;-78
2021/01/30 11:20:47;;;;;;;1.70;1.53;;;3.40;98.20;;;;;;6179073;23;20443;-78
2021/01/30 11:23:34;;;;;;;1.70;1.60;;;3.40;98.20;;;;;;6181003;23;20983;-77
2021/01/30 11:26:15;;;;;;;3.10;2.90;;;3.30;98.20;;;;;;6181542;23;20921;-78
2021/01/30 11:28:42;;;;;;;1.63;1.30;;;3.20;98.20;;;;;;6179203;23;20404;-76
2021/01/30 11:31:10;;;;;;;1.70;1.40;;;3.30;98.20;;;;;;6176331;23;20980;-76
2021/01/30 11:33:37;;;;;;;1.70;1.40;;;3.40;98.20;;;;;;6176920;23;20447;-78
2021/01/30 11:36:05;;;;;;;1.70;1.40;;;3.40;98.20;;;;;;6181133;23;20809;-78
2021/01/30 11:38:32;;;;;;;1.67;1.40;;;3.50;98.20;;;;;;6180595;23;20435;-77
2021/01/30 11:41:00;;;;;;;1.70;1.50;;;3.50;98.20;;;;;;6180986;23;20451;-76
2021/01/30 11:43:27;;;;;;;1.63;1.30;;;3.60;98.20;;;;;;6178766;23;20609;-77
2021/01/30 11:45:55;;;;;;;1.67;1.40;;;3.60;98.20;;;;;;6176817;23;20506;-77
2021/01/30 11:48:22;;;;;;;1.70;1.53;;;3.70;98.20;;;;;;6174155;23;20945;-75
2021/01/30 11:50:51;;;;;;;1.67;1.30;;;3.70;98.20;;;;;;6174171;23;20482;-78
2021/01/30 11:53:20;;;;;;;1.60;1.37;;;3.80;98.20;;;;;;6176527;23;20428;-75
2021/01/30 11:55:49;;;;;;;1.60;1.30;;;3.80;98.20;;;;;;6175702;23;20419;-76
2021/01/30 11:58:17;;;;;;;1.67;1.40;;;3.80;98.20;;;;;;6178606;23;20420;-77
2021/01/30 12:00:43;;;;;;;1.70;1.40;;;3.80;98.20;;;;;;6179276;23;20454;-79
2021/01/30 12:03:21;;;;;;;1.60;1.30;;;3.80;98.20;;;;;;6180600;23;20692;-77
2021/01/30 12:05:47;;;;;;;1.70;1.40;;;3.80;98.20;;;;;;6180564;23;20431;-75
2021/01/30 12:08:14;;;;;;;1.67;1.30;;;3.90;98.20;;;;;;6175393;23;20478;-75
2021/01/30 12:10:40;;;;;;;1.63;1.33;;;3.90;98.20;;;;;;6175377;23;20808;-76
2021/01/30 12:13:07;;;;;;;1.70;1.47;;;3.90;98.20;;;;;;6176009;23;20460;-77
2021/01/30 12:15:34;;;;;;;1.63;1.40;;;3.80;98.20;;;;;;6177377;23;20992;-76
2021/01/30 12:18:00;;;;;;;1.70;1.50;;;3.80;98.20;;;;;;6188992;23;20908;-77
2021/01/30 12:20:28;;;;;;;1.60;1.40;;;3.90;98.20;;;;;;6189142;23;20423;-75
2021/01/30 12:22:57;;;;;;;1.70;1.40;;;3.90;98.20;;;;;;6180868;23;20987;-76
2021/01/30 12:25:24;;;;;;;1.70;1.40;;;3.90;98.20;;;;;;6180143;23;20443;-77
2021/01/30 12:27:53;;;;;;;1.70;1.40;;;3.90;98.20;;;;;;6192665;23;20446;-78
2021/01/30 12:30:22;;;;;;;1.70;1.50;;;3.90;98.20;;;;;;6177684;23;20423;-76
2021/01/30 12:32:50;;;;;;;1.70;1.50;;;3.90;98.20;;;;;;6180209;23;20428;-76
2021/01/30 12:35:17;;;;;;;1.70;1.30;;;3.80;98.20;;;;;;6190754;23;20481;-76
2021/01/30 12:37:44;;;;;;;1.70;1.50;;;3.90;98.20;;;;;;6180333;23;20866;-78
2021/01/30 12:40:11;;;;;;;1.63;1.30;;;3.90;98.20;;;;;;6181479;23;20497;-78
2021/01/30 12:42:38;;;;;;;1.67;1.30;;;3.90;98.20;;;;;;6181826;23;20440;-77
2021/01/30 12:45:10;;;;;;;1.70;1.40;;;4.00;98.20;;;;;;6182591;23;20455;-75
2021/01/30 12:47:37;;;;;;;1.67;1.40;;;4.00;98.20;;;;;;6192419;23;21127;-76
2021/01/30 12:50:05;;;;;;;1.70;1.43;;;4.00;98.20;;;;;;6181129;23;20423;-76
2021/01/30 12:52:32;;;;;;;1.63;1.40;;;4.00;98.20;;;;;;6180484;23;20726;-76
2021/01/30 12:54:58;;;;;;;1.67;1.30;;;4.10;98.20;;;;;;6181723;23;20431;-77
2021/01/30 12:57:25;;;;;;;1.60;1.30;;;4.20;98.20;;;;;;6181169;23;20515;-78
2021/01/30 12:59:51;;;;;;;4.37;4.07;;;4.20;98.20;;;;;;6181739;23;20428;-77
2021/01/30 13:02:18;;;;;;;1.60;1.30;;;4.20;98.20;;;;;;6178437;23;20602;-77
2021/01/30 13:04:45;;;;;;;1.60;1.30;;;4.20;98.20;;;;;;6180268;23;20423;-76
2021/01/30 13:07:11;;;;;;;1.63;1.40;;;4.10;98.20;;;;;;6181550;23;20443;-77
2021/01/30 13:09:38;;;;;;;1.70;1.40;;;4.20;98.20;;;;;;6179189;23;20519;-77
2021/01/30 13:12:06;;;;;;;1.63;1.30;;;4.20;98.20;;;;;;6179332;23;20482;-76
2021/01/30 13:14:32;;;;;;;1.63;1.40;;;4.20;98.20;;;;;;6179422;23;20428;-77
2021/01/30 13:16:59;;;;;;;1.70;1.40;;;4.20;98.20;;;;;;6179519;23;20925;-77
2021/01/30 13:19:25;;;;;;;1.70;1.50;;;4.20;98.20;;;;;;6180101;23;20420;-77
2021/01/30 13:21:53;;;;;;;1.70;1.40;;;4.30;98.20;;;;;;6181403;23;20443;-76
2021/01/30 13:24:19;;;;;;;1.70;1.40;;;4.30;98.20;;;;;;6180396;23;20423;-77
2021/01/30 13:26:46;;;;;;;1.60;1.30;;;4.30;98.20;;;;;;6181647;23;20531;-76
2021/01/30 13:29:14;;;;;;;1.63;1.40;;;4.30;98.20;;;;;;6190203;23;20428;-77
2021/01/30 13:31:42;;;;;;;1.80;1.50;;;4.30;98.20;;;;;;6179279;23;21092;-77
2021/01/30 13:34:09;;;;;;;1.70;1.50;;;4.30;98.20;;;;;;6190696;23;20455;-79
2021/01/30 13:36:36;;;;;;;1.67;1.40;;;4.30;98.20;;;;;;6183171;23;20416;-76
2021/01/30 13:39:04;;;;;;;1.60;1.30;;;4.20;98.20;;;;;;6183759;23;20432;-76
2021/01/30 13:41:32;;;;;;;1.67;1.30;;;4.10;98.20;;;;;;6184243;23;20876;-76
2021/01/30 13:43:59;;;;;;;2.63;2.43;;;4.20;98.20;;;;;;6181220;23;21304;-77
2021/01/30 13:46:26;;;;;;;1.90;1.80;;;4.10;98.20;;;;;;6189400;23;20447;-78
2021/01/30 13:48:52;;;;;;;1.70;1.40;;;4.10;98.20;;;;;;6180109;23;20420;-76
2021/01/30 13:51:19;;;;;;;1.70;1.40;;;4.10;98.20;;;;;;6191301;23;20567;-77
2021/01/30 13:53:46;;;;;;;1.70;1.40;;;4.10;98.20;;;;;;6185790;23;20424;-77
2021/01/30 13:56:14;;;;;;;1.60;1.30;;;4.20;98.20;;;;;;6181965;23;20451;-75
2021/01/30 13:58:41;;;;;;;1.60;1.30;;;4.20;98.20;;;;;;6181368;23;20451;-76
2021/01/30 14:01:07;;;;;;;1.70;1.47;;;4.20;97.20;;;;;;6182298;23;21267;-78
2021/01/30 14:03:33;;;;;;;1.67;1.40;;;4.10;97.70;;;;;;6183428;23;20938;-78
2021/01/30 14:06:00;;;;;;;1.60;1.30;;;4.10;98.00;;;;;;6182273;23;20522;-77
2021/01/30 14:08:26;;;;;;;1.63;1.40;;;4.10;97.50;;;;;;6182397;23;20428;-76
2021/01/30 14:10:53;;;;;;;1.67;1.40;;;4.10;97.60;;;;;;6179956;23;20447;-75
2021/01/30 14:13:20;;;;;;;1.70;1.30;;;4.10;97.40;;;;;;6188187;23;20428;-75
2021/01/30 14:15:48;;;;;;;1.60;1.30;;;4.10;97.90;;;;;;6180742;23;20514;-76
2021/01/30 14:18:14;;;;;;;1.70;1.50;;;4.10;97.10;;;;;;6193569;23;20467;-78
2021/01/30 14:20:41;;;;;;;1.70;1.40;;;4.00;97.30;;;;;;6194366;23;20444;-76
2021/01/30 14:23:08;;;;;;;1.60;1.37;;;4.00;97.30;;;;;;6182904;23;20427;-76
2021/01/30 14:25:35;;;;;;;1.60;1.40;;;4.00;97.30;;;;;;6182266;23;20450;-76
2021/01/30 14:28:02;;;;;;;1.60;1.30;;;4.00;97.20;;;;;;6184523;23;20431;-78
2021/01/30 14:30:30;;;;;;;1.60;1.40;;;3.90;97.50;;;;;;6180152;23;20454;-77
2021/01/30 14:32:57;;;;;;;1.70;1.40;;;3.90;97.70;;;;;;6178532;23;20804;-76
2021/01/30 14:35:27;;;;;;;1.63;1.33;;;3.90;97.30;;;;;;6180806;23;20478;-77
2021/01/30 14:37:53;;;;;;;1.67;1.40;;;3.90;97.10;;;;;;6184279;23;20419;-77
2021/01/30 14:40:24;;;;;;;1.63;1.40;;;3.90;97.80;;;;;;6183385;23;20435;-74
2021/01/30 14:42:51;;;;;;;1.60;1.30;;;3.90;97.30;;;;;;6183238;23;20528;-77
2021/01/30 14:45:17;;;;;;;1.63;1.30;;;3.90;97.20;;;;;;6193252;23;20423;-76
2021/01/30 14:47:45;;;;;;;1.70;1.50;;;3.90;97.50;;;;;;6182128;23;20424;-76
2021/01/30 14:50:12;;;;;;;1.67;1.40;;;4.00;97.70;;;;;;6183239;23;20431;-76
2021/01/30 14:52:39;;;;;;;1.60;1.30;;;3.90;97.40;;;;;;6182432;23;20444;-76
2021/01/30 14:55:07;;;;;;;1.70;1.40;;;3.90;97.10;;;;;;6183335;23;20432;-76
2021/01/30 14:57:33;;;;;;;1.63;1.40;;;4.00;98.00;;;;;;6184302;23;20435;-76
2021/01/30 15:00:00;;;;;;;1.70;1.40;;;3.90;97.70;;;;;;6185621;23;20462;-75
2021/01/30 15:02:26;;;;;;;1.67;1.30;;;3.90;97.30;;;;;;6181112;23;20447;-76
2021/01/30 15:04:54;;;;;;;1.60;1.30;;;3.90;97.40;;;;;;6183187;23;20455;-75
2021/01/30 15:07:22;;;;;;;1.70;1.50;;;3.90;97.20;;;;;;6183136;23;20452;-74
2021/01/30 15:09:48;;;;;;;1.63;1.40;;;3.90;96.90;;;;;;6185628;23;20430;-75
2021/01/30 15:12:15;;;;;;;1.70;1.40;;;3.80;96.70;;;;;;6184167;23;20453;-75
2021/01/30 15:14:41;;;;;;;1.70;1.40;;;3.80;96.80;;;;;;6184924;23;20521;-77
2021/01/30 15:17:08;;;;;;;2.43;2.23;;;3.80;96.90;;;;;;6184942;23;20427;-75
2021/01/30 15:19:35;;;;;;;1.70;1.50;;;3.80;96.80;;;;;;6184385;23;20478;-76
2021/01/30 15:22:02;;;;;;;1.60;1.30;;;3.80;97.10;;;;;;6184083;23;20447;-76
2021/01/30 15:24:29;;;;;;;1.63;1.30;;;3.80;97.30;;;;;;6184881;23;21024;-76
2021/01/30 15:26:55;;;;;;;1.60;1.30;;;3.90;97.30;;;;;;6183156;23;20447;-75
2021/01/30 15:29:24;;;;;;;1.70;1.60;;;3.80;97.50;;;;;;6180503;23;20439;-75
2021/01/30 15:31:51;;;;;;;1.63;1.40;;;3.80;96.60;;;;;;6191902;23;21024;-75
2021/01/30 15:34:17;;;;;;;1.60;1.30;;;3.80;96.80;;;;;;6183882;23;20431;-76
2021/01/30 15:36:44;;;;;;;1.60;1.30;;;3.80;96.40;;;;;;6186297;23;21245;-77
2021/01/30 15:39:13;;;;;;;1.60;1.30;;;3.80;96.30;;;;;;6186002;23;21288;-76
2021/01/30 15:41:39;;;;;;;1.70;1.40;;;3.80;96.40;;;;;;6185871;23;20829;-76
2021/01/30 15:44:06;;;;;;;1.60;1.30;;;3.80;96.30;;;;;;6186974;23;20847;-76
2021/01/30 15:46:33;;;;;;;1.60;1.30;;;3.80;96.10;;;;;;6184523;23;20447;-75
2021/01/30 15:48:59;;;;;;;1.67;1.43;;;3.80;96.50;;;;;;6182875;23;20447;-77
2021/01/30 15:51:26;;;;;;;1.60;1.40;;;3.80;96.20;;;;;;6188504;23;20447;-76
2021/01/30 15:53:53;;;;;;;1.67;1.40;;;3.80;95.90;;;;;;6180804;23;20451;-76
2021/01/30 15:56:20;;;;;;;1.60;1.30;;;3.80;96.00;;;;;;6176967;23;20420;-76
2021/01/30 15:58:46;;;;;;;1.60;1.30;;;3.80;96.10;;;;;;6181441;23;20482;-75
2021/01/30 16:01:13;;;;;;;1.70;1.50;;;3.80;96.10;;;;;;6179741;23;20451;-74
2021/01/30 16:03:39;;;;;;;1.67;1.40;;;3.80;96.50;;;;;;6175979;23;20424;-75
2021/01/30 16:06:07;;;;;;;1.70;1.53;;;3.80;96.90;;;;;;6187925;23;20444;-75
2021/01/30 16:08:33;;;;;;;1.70;1.57;;;3.80;97.20;;;;;;6176247;23;20424;-74
2021/01/30 16:11:00;;;;;;;1.67;1.40;;;3.80;97.30;;;;;;6176282;23;20448;-75
2021/01/30 16:13:27;;;;;;;1.70;1.40;;;3.80;97.50;;;;;;6179891;23;20491;-74
2021/01/30 16:15:54;;;;;;;1.60;1.40;;;3.80;97.00;;;;;;6176057;23;20424;-74
2021/01/30 16:18:20;;;;;;;1.70;1.40;;;3.70;96.80;;;;;;6175532;23;20431;-74
2021/01/30 16:20:49;;;;;;;1.60;1.30;;;3.70;97.00;;;;;;6178984;23;20444;-77
2021/01/30 16:23:18;;;;;;;1.70;1.60;;;3.70;96.60;;;;;;6196018;23;20428;-77
2021/01/30 16:25:44;;;;;;;1.70;1.50;;;3.70;96.50;;;;;;6195604;23;20447;-76
2021/01/30 16:28:12;;;;;;;1.70;1.40;;;3.70;96.80;;;;;;6186130;23;20464;-75
2021/01/30 16:30:39;;;;;;;1.87;1.77;;;3.70;96.90;;;;;;6178708;23;20427;-76
2021/01/30 16:33:06;;;;;;;1.60;1.40;;;3.70;97.10;;;;;;6178345;23;20420;-77
2021/01/30 16:35:33;;;;;;;1.60;1.50;;;3.70;97.70;;;;;;6184109;23;20424;-75
2021/01/30 16:38:01;;;;;;;1.70;1.50;;;3.70;97.80;;;;;;6196615;23;20415;-76
2021/01/30 16:40:28;;;;;;;1.63;1.40;;;3.70;98.00;;;;;;6186167;23;20440;-76
2021/01/30 16:42:55;;;;;;;1.67;1.40;;;3.70;97.40;;;;;;6155106;23;20428;-76
2021/01/30 16:45:23;;;;;;;1.70;1.40;;;3.70;97.40;;;;;;6194991;23;20474;-77
2021/01/30 16:47:51;;;;;;;1.60;1.30;;;3.70;97.90;;;;;;6177687;23;20478;-76
2021/01/30 16:50:18;;;;;;;1.60;1.40;;;3.70;97.80;;;;;;6180734;23;20423;-76
2021/01/30 16:52:45;;;;;;;1.70;1.50;;;3.70;98.20;;;;;;6188563;23;20439;-76
2021/01/30 16:55:12;;;;;;;1.60;1.30;;;3.70;98.00;;;;;;6184175;23;20419;-76
2021/01/30 16:57:39;;;;;;;1.70;1.60;;;3.70;98.20;;;;;;6197052;23;20423;-75
2021/01/30 17:00:08;;;;;;;1.60;1.40;;;3.60;98.20;;;;;;6188749;23;20666;-75
2021/01/30 17:02:34;;;;;;;1.60;1.30;;;3.60;97.70;;;;;;6187659;23;20455;-77
2021/01/30 17:05:03;;;;;;;1.63;1.40;;;3.60;97.70;;;;;;6186258;23;21059;-75
2021/01/30 17:07:30;;;;;;;1.70;1.50;;;3.60;97.80;;;;;;6194600;23;20455;-75
2021/01/30 17:09:56;;;;;;;1.70;1.40;;;3.60;98.20;;;;;;6196242;23;20431;-75
2021/01/30 17:12:23;;;;;;;1.60;1.30;;;3.50;97.40;;;;;;6185640;23;20493;-75
2021/01/30 17:14:50;;;;;;;1.60;1.30;;;3.50;98.20;;;;;;6182033;23;20470;-75
2021/01/30 17:17:17;;;;;;;1.67;1.43;;;3.50;98.20;;;;;;6195499;23;20447;-75
2021/01/30 17:19:44;;;;;;;1.60;1.40;;;3.50;97.90;;;;;;6188611;23;20420;-75
2021/01/30 17:22:15;;;;;;;1.70;1.40;;;3.50;98.00;;;;;;6198319;23;20447;-74
2021/01/30 17:24:41;;;;;;;1.63;1.37;;;3.50;97.90;;;;;;6187374;23;20470;-76
2021/01/30 17:27:09;;;;;;;1.60;1.40;;;3.50;98.20;;;;;;6196472;23;20486;-76
2021/01/30 17:29:35;;;;;;;1.63;1.40;;;3.50;98.20;;;;;;6190493;23;20478;-75
2021/01/30 17:32:03;;;;;;;1.60;1.30;;;3.50;98.20;;;;;;6190718;23;20472;-76
2021/01/30 17:34:31;;;;;;;1.70;1.40;;;3.50;98.20;;;;;;6181250;23;20487;-75
2021/01/30 17:36:58;;;;;;;1.77;1.67;;;3.50;98.20;;;;;;6197892;23;20428;-75
2021/01/30 17:39:27;;;;;;;1.70;1.50;;;3.50;98.10;;;;;;6195681;23;20436;-73
2021/01/30 17:41:54;;;;;;;1.70;1.43;;;3.50;98.20;;;;;;6196658;23;20439;-75
2021/01/30 17:44:22;;;;;;;1.70;1.53;;;3.40;98.20;;;;;;6182349;23;20430;-76
2021/01/30 17:46:49;;;;;;;1.60;1.30;;;3.50;98.20;;;;;;6177958;23;20440;-76
2021/01/30 17:49:16;;;;;;;1.63;1.30;;;3.50;98.20;;;;;;6178303;23;21410;-76
2021/01/30 17:51:43;;;;;;;1.67;1.40;;;3.40;98.20;;;;;;6187202;23;20443;-75
2021/01/30 17:54:10;;;;;;;1.70;1.43;;;3.40;98.20;;;;;;6179840;23;20450;-75
2021/01/30 17:56:37;;;;;;;1.67;1.40;;;3.40;98.20;;;;;;6176846;23;20423;-75
2021/01/30 17:59:04;;;;;;;1.70;1.43;;;3.40;98.20;;;;;;6177847;23;20424;-75
2021/01/30 18:01:30;;;;;;;1.67;1.30;;;3.40;98.20;;;;;;6176270;23;20451;-76
2021/01/30 18:03:57;;;;;;;1.70;1.40;;;3.40;98.20;;;;;;6177380;23;20466;-75
2021/01/30 18:06:23;;;;;;;1.70;1.60;;;3.40;98.20;;;;;;6176471;23;20452;-76
2021/01/30 18:08:50;;;;;;;1.70;1.30;;;3.40;98.20;;;;;;6176239;23;20455;-76
2021/01/30 18:11:17;;;;;;;2.03;1.83;;;3.40;98.20;;;;;;6174329;23;20518;-75
2021/01/30 18:13:44;;;;;;;1.63;1.40;;;3.40;98.20;;;;;;6176329;23;20896;-75
2021/01/30 18:16:11;;;;;;;1.60;1.30;;;3.40;98.20;;;;;;6178017;23;20519;-76
2021/01/30 18:18:38;;;;;;;1.70;1.50;;;3.40;98.20;;;;;;6176331;23;20424;-75
2021/01/30 18:21:05;;;;;;;1.67;1.40;;;3.40;98.20;;;;;;6180254;23;20526;-76
2021/01/30 18:23:31;;;;;;;1.70;1.47;;;3.40;98.20;;;;;;6188277;23;20428;-75
2021/01/30 18:25:58;;;;;;;1.63;1.37;;;3.40;98.20;;;;;;6174540;23;20471;-74
2021/01/30 18:28:26;;;;;;;1.70;1.47;;;3.40;98.20;;;;;;6174808;23;20426;-76
2021/01/30 18:30:54;;;;;;;1.67;1.40;;;3.30;98.20;;;;;;6174704;23;20444;-75
2021/01/30 18:33:21;;;;;;;1.80;1.70;;;3.30;98.20;;;;;;6170819;23;21031;-75
2021/01/30 18:35:48;;;;;;;1.70;1.50;;;3.30;98.10;;;;;;6174727;23;20439;-76
2021/01/30 18:38:15;;;;;;;2.07;1.87;;;3.30;98.20;;;;;;6172886;23;20578;-74
2021/01/30 18:40:42;;;;;;;1.70;1.50;;;3.30;98.20;;;;;;6174711;23;21051;-76
2021/01/30 18:43:11;;;;;;;1.67;1.40;;;3.30;98.20;;;;;;6173300;23;20608;-75
2021/01/30 18:45:39;;;;;;;1.60;1.40;;;3.30;98.20;;;;;;6175535;23;20451;-76
2021/01/30 18:48:07;;;;;;;1.60;1.30;;;3.30;98.20;;;;;;6171190;23;20424;-74
2021/01/30 18:50:34;;;;;;;1.60;1.40;;;3.30;98.20;;;;;;6174192;23;20455;-74
2021/01/30 18:53:00;;;;;;;1.60;1.43;;;3.30;98.20;;;;;;6173288;23;20626;-75
2021/01/30 18:55:27;;;;;;;1.60;1.33;;;3.30;98.20;;;;;;6172505;23;20869;-74
2021/01/30 18:57:55;;;;;;;1.70;1.53;;;3.30;98.20;;;;;;6173949;23;20444;-74
2021/01/30 19:00:26;;;;;;;1.60;1.40;;;3.30;98.20;;;;;;6172105;23;20487;-75
2021/01/30 19:02:52;;;;;;;1.70;1.57;;;3.20;98.20;;;;;;6171542;23;20408;-73
2021/01/30 19:05:20;;;;;;;1.70;1.60;;;3.20;98.20;;;;;;6171084;23;20463;-74
2021/01/30 19:07:47;;;;;;;1.60;1.40;;;3.20;98.20;;;;;;6169999;23;20447;-74
2021/01/30 19:10:14;;;;;;;1.67;1.30;;;3.10;98.20;;;;;;6173250;23;21146;-74
2021/01/30 19:12:41;;;;;;;1.70;1.47;;;3.10;98.20;;;;;;6174499;23;20478;-75
2021/01/30 19:15:12;;;;;;;1.67;1.40;;;3.10;98.20;;;;;;6173766;23;20458;-76
2021/01/30 19:17:39;;;;;;;1.70;1.50;;;3.10;98.20;;;;;;6176002;23;20404;-75
2021/01/30 19:20:07;;;;;;;1.70;1.50;;;3.10;98.20;;;;;;6177474;23;20424;-74
2021/01/30 19:22:34;;;;;;;1.67;1.47;;;3.10;98.20;;;;;;6176589;23;20474;-75
2021/01/30 19:25:00;;;;;;;1.70;1.50;;;3.10;98.20;;;;;;6175940;23;20488;-77
2021/01/30 19:27:27;;;;;;;1.70;1.50;;;3.10;98.20;;;;;;6175576;23;20791;-76
2021/01/30 19:29:53;;;;;;;2.17;1.97;;;3.10;98.20;;;;;;6171338;23;20946;-75
2021/01/30 19:32:19;;;;;;;2.53;2.33;;;3.10;98.20;;;;;;6178086;23;20471;-77
2021/01/30 19:34:46;;;;;;;1.70;1.47;;;3.10;98.20;;;;;;6180544;23;20423;-75
2021/01/30 19:37:12;;;;;;;1.70;1.50;;;3.10;98.20;;;;;;6177946;23;20452;-75
2021/01/30 19:39:40;;;;;;;1.70;1.50;;;3.10;98.20;;;;;;6173906;23;20432;-75
2021/01/30 19:42:07;;;;;;;1.70;1.50;;;3.10;98.20;;;;;;6174880;23;20439;-74
2021/01/30 19:44:33;;;;;;;1.70;1.50;;;3.00;98.20;;;;;;6173731;23;20602;-74
2021/01/30 19:47:00;;;;;;;1.70;1.40;;;3.00;98.20;;;;;;6174095;23;20533;-75
2021/01/30 19:49:26;;;;;;;1.70;1.50;;;3.00;98.20;;;;;;6173001;23;20490;-75
2021/01/30 19:51:53;;;;;;;1.70;1.53;;;3.00;98.20;;;;;;6176154;23;20518;-75
2021/01/30 19:54:19;;;;;;;1.63;1.40;;;2.90;98.20;;;;;;6176516;23;20427;-74
2021/01/30 19:56:47;;;;;;;1.67;1.40;;;2.90;98.20;;;;;;6172890;23;20422;-75
2021/01/30 19:59:14;;;;;;;1.67;1.40;;;2.90;98.20;;;;;;6174536;23;20460;-76
2021/01/30 20:01:40;;;;;;;1.67;1.40;;;2.90;98.20;;;;;;6172260;23;20448;-76
2021/01/30 20:04:07;;;;;;;1.60;1.40;;;2.80;98.20;;;;;;6175449;23;20431;-76
2021/01/30 20:06:33;;;;;;;1.70;1.57;;;2.80;98.20;;;;;;6186346;23;20440;-75
2021/01/30 20:08:59;;;;;;;1.60;1.37;;;2.80;98.20;;;;;;6179027;23;20465;-75
2021/01/30 20:11:26;;;;;;;1.60;1.40;;;2.80;98.20;;;;;;6180062;23;20491;-75
2021/01/30 20:13:53;;;;;;;1.70;1.60;;;2.80;98.20;;;;;;6177922;23;20430;-74
2021/01/30 20:16:19;;;;;;;1.73;1.63;;;2.70;98.20;;;;;;6174959;23;20528;-74
2021/01/30 20:18:46;;;;;;;1.63;1.40;;;2.70;98.20;;;;;;6176481;23;20509;-76
2021/01/30 20:21:12;;;;;;;1.60;1.40;;;2.70;98.20;;;;;;6185409;23;20534;-76
2021/01/30 20:23:39;;;;;;;1.70;1.60;;;2.70;98.20;;;;;;6180034;23;21193;-77
2021/01/30 20:26:05;;;;;;;1.70;1.50;;;2.70;98.20;;;;;;6176135;23;20475;-75
2021/01/30 20:28:31;;;;;;;1.70;1.50;;;2.70;98.20;;;;;;6178264;23;20435;-74
2021/01/30 20:30:59;;;;;;;1.63;1.40;;;2.70;98.20;;;;;;6186543;23;20444;-75
2021/01/30 20:33:25;;;;;;;1.70;1.60;;;2.70;98.20;;;;;;6180474;23;20452;-76
2021/01/30 20:35:52;;;;;;;1.60;1.40;;;2.70;98.20;;;;;;6178752;23;20458;-76
2021/01/30 20:38:18;;;;;;;1.80;1.70;;;2.70;98.20;;;;;;6176653;23;20458;-74
2021/01/30 20:40:44;;;;;;;1.60;1.30;;;2.70;98.20;;;;;;6179353;23;20447;-74
2021/01/30 20:43:11;;;;;;;1.70;1.50;;;2.70;98.20;;;;;;6177816;23;20517;-74
2021/01/30 20:45:38;;;;;;;1.67;1.50;;;2.70;98.20;;;;;;6175573;23;20459;-75